createdAt,value
2022-08-18T00:00:24.015Z,76.70
2022-08-18T00:01:25.930Z,76.92
2022-08-18T00:02:31.770Z,76.61
2022-08-18T00:03:57.394Z,76.88
2022-08-18T00:04:58.341Z,76.99
2022-08-18T00:06:01.437Z,76.86
2022-08-18T00:07:04.104Z,76.97
2022-08-18T00:08:06.642Z,77.20
2022-08-18T00:09:10.844Z,77.12
2022-08-18T00:10:15.598Z,77.15
2022-08-18T00:11:22.233Z,77.08
2022-08-18T00:12:26.377Z,77.14
2022-08-18T00:13:29.089Z,77.24
2022-08-18T00:14:31.089Z,77.20
2022-08-18T00:15:48.736Z,77.37
2022-08-18T00:16:53.350Z,77.39
2022-08-18T00:17:55.910Z,77.45
2022-08-18T00:18:57.698Z,77.41
2022-08-18T00:20:00.585Z,77.54
2022-08-18T00:21:03.537Z,77.47
2022-08-18T00:22:06.680Z,77.75
2022-08-18T00:23:08.801Z,77.83
2022-08-18T00:24:11.387Z,77.56
2022-08-18T00:25:16.481Z,77.76
2022-08-18T00:26:19.020Z,77.94
2022-08-18T00:27:23.221Z,77.89
2022-08-18T00:28:26.337Z,77.89
2022-08-18T00:29:28.180Z,78.08
2022-08-18T00:30:30.696Z,78.21
2022-08-18T00:31:33.093Z,78.19
2022-08-18T00:32:39.417Z,78.25
2022-08-18T00:33:40.972Z,78.03
2022-08-18T00:34:44.049Z,78.06
2022-08-18T00:35:45.672Z,78.11
2022-08-18T00:36:50.150Z,78.26
2022-08-18T00:37:52.080Z,78.00
2022-08-18T00:38:54.930Z,78.37
2022-08-18T00:39:57.518Z,78.21
2022-08-18T00:40:59.201Z,78.58
2022-08-18T00:42:13.685Z,78.46
2022-08-18T00:43:34.411Z,78.48
2022-08-18T00:45:28.114Z,78.53
2022-08-18T00:46:33.247Z,78.63
2022-08-18T00:47:42.468Z,78.79
2022-08-18T00:48:48.538Z,78.67
2022-08-18T00:49:54.165Z,78.85
2022-08-18T00:50:57.699Z,78.83
2022-08-18T00:52:02.697Z,78.96
2022-08-18T00:53:09.299Z,79.11
2022-08-18T00:54:16.616Z,78.80
2022-08-18T00:55:19.406Z,78.83
2022-08-18T00:56:26.371Z,78.90
2022-08-18T00:57:29.280Z,78.67
2022-08-18T00:58:37.174Z,78.86
2022-08-18T00:59:45.373Z,79.07
2022-08-18T01:00:50.553Z,78.80
2022-08-18T01:01:55.599Z,78.58
2022-08-18T01:03:03.896Z,78.34
2022-08-18T01:04:09.712Z,78.67
2022-08-18T01:05:18.897Z,78.38
2022-08-18T01:06:26.689Z,78.71
2022-08-18T01:07:36.587Z,78.43
2022-08-18T01:08:38.641Z,78.38
2022-08-18T01:09:43.545Z,78.18
2022-08-18T01:10:45.578Z,78.62
2022-08-18T01:11:48.548Z,78.49
2022-08-18T01:12:53.273Z,78.33
2022-08-18T01:14:00.142Z,78.47
2022-08-18T01:15:02.095Z,78.54
2022-08-18T01:16:25.737Z,78.54
2022-08-18T01:17:46.411Z,78.59
2022-08-18T01:19:06.712Z,78.61
2022-08-18T01:20:31.238Z,78.92
2022-08-18T01:21:53.216Z,79.03
2022-08-18T01:23:04.594Z,78.72
2022-08-18T01:24:11.409Z,79.04
2022-08-18T01:25:32.834Z,79.36
2022-08-18T01:26:37.524Z,79.40
2022-08-18T01:27:48.032Z,79.56
2022-08-18T01:28:50.579Z,79.33
2022-08-18T01:29:53.353Z,79.35
2022-08-18T01:30:58.257Z,79.37
2022-08-18T01:32:00.866Z,79.35
2022-08-18T01:33:02.540Z,79.58
2022-08-18T01:34:06.232Z,79.43
2022-08-18T01:35:10.440Z,79.73
2022-08-18T01:36:22.227Z,79.58
2022-08-18T01:37:25.389Z,79.67
2022-08-18T01:38:32.171Z,79.72
2022-08-18T01:41:01.000Z,79.36
2022-08-18T01:41:22.377Z,79.51
2022-08-18T01:42:19.361Z,79.45
2022-08-18T01:43:21.217Z,79.32
2022-08-18T01:44:23.889Z,79.58
2022-08-18T01:45:26.411Z,79.58
2022-08-18T01:46:30.775Z,79.63
2022-08-18T01:47:48.093Z,79.42
2022-08-18T01:48:51.586Z,79.69
2022-08-18T01:49:53.315Z,79.39
2022-08-18T01:50:56.919Z,79.46
2022-08-18T01:51:58.545Z,79.87
2022-08-18T01:53:01.572Z,79.48
2022-08-18T01:54:05.434Z,79.87
2022-08-18T01:55:08.808Z,79.65
2022-08-18T01:56:10.789Z,79.50
2022-08-18T01:57:16.737Z,79.82
2022-08-18T01:58:18.369Z,79.79
2022-08-18T01:59:20.959Z,79.54
2022-08-18T02:00:22.801Z,79.68
2022-08-18T02:01:35.311Z,79.82
2022-08-18T02:02:41.881Z,79.53
2022-08-18T02:03:49.090Z,79.48
2022-08-18T02:04:55.145Z,79.43
2022-08-18T02:06:00.881Z,79.50
2022-08-18T02:07:06.226Z,79.09
2022-08-18T02:08:08.263Z,78.90
2022-08-18T02:09:12.774Z,79.17
2022-08-18T02:10:16.473Z,79.06
2022-08-18T02:11:19.441Z,78.75
2022-08-18T02:12:21.097Z,78.74
2022-08-18T02:13:24.001Z,78.88
2022-08-18T02:14:27.580Z,78.70
2022-08-18T02:15:30.442Z,78.73
2022-08-18T02:16:33.425Z,78.86
2022-08-18T02:17:39.002Z,78.76
2022-08-18T02:18:47.623Z,78.58
2022-08-18T02:19:51.220Z,78.52
2022-08-18T02:20:52.904Z,78.21
2022-08-18T02:21:55.595Z,78.42
2022-08-18T02:22:58.580Z,78.30
2022-08-18T02:24:02.441Z,78.14
2022-08-18T02:25:07.401Z,78.42
2022-08-18T02:26:14.710Z,78.24
2022-08-18T02:27:16.780Z,78.07
2022-08-18T02:28:19.386Z,78.22
2022-08-18T02:29:21.066Z,78.31
2022-08-18T02:30:24.019Z,78.35
2022-08-18T02:31:35.999Z,78.27
2022-08-18T02:32:38.919Z,77.99
2022-08-18T02:33:41.149Z,78.18
2022-08-18T02:34:54.280Z,77.84
2022-08-18T02:35:56.084Z,78.12
2022-08-18T02:37:00.882Z,77.94
2022-08-18T02:38:04.226Z,78.19
2022-08-18T02:39:09.510Z,78.26
2022-08-18T02:40:14.872Z,78.30
2022-08-18T02:41:18.376Z,77.94
2022-08-18T02:42:20.069Z,78.34
2022-08-18T02:43:22.712Z,78.14
2022-08-18T02:44:24.340Z,78.22
2022-08-18T02:45:27.169Z,78.22
2022-08-18T02:46:30.243Z,78.12
2022-08-18T02:47:34.004Z,78.16
2022-08-18T02:48:35.642Z,78.55
2022-08-18T02:49:38.231Z,78.08
2022-08-18T02:50:47.109Z,78.37
2022-08-18T02:51:52.012Z,78.29
2022-08-18T02:52:54.509Z,78.42
2022-08-18T02:53:59.405Z,78.55
2022-08-18T02:55:02.414Z,78.29
2022-08-18T02:56:32.722Z,78.69
2022-08-18T02:57:44.601Z,78.48
2022-08-18T02:58:48.007Z,78.39
2022-08-18T02:59:49.737Z,78.84
2022-08-18T03:00:52.686Z,78.60
2022-08-18T03:01:56.187Z,78.97
2022-08-18T03:02:58.999Z,79.02
2022-08-18T03:04:01.067Z,78.92
2022-08-18T03:05:03.979Z,79.05
2022-08-18T03:06:06.305Z,78.92
2022-08-18T03:07:09.430Z,79.12
2022-08-18T03:08:11.523Z,78.83
2022-08-18T03:09:16.175Z,78.68
2022-08-18T03:10:32.365Z,78.99
2022-08-18T03:11:38.949Z,78.99
2022-08-18T03:12:41.950Z,78.90
2022-08-18T03:13:45.588Z,78.78
2022-08-18T03:14:47.331Z,78.83
2022-08-18T03:15:53.412Z,79.38
2022-08-18T03:16:59.752Z,79.10
2022-08-18T03:18:02.007Z,79.32
2022-08-18T03:19:04.872Z,79.26
2022-08-18T03:20:07.873Z,78.96
2022-08-18T03:21:14.196Z,79.31
2022-08-18T03:22:28.145Z,79.26
2022-08-18T03:23:32.376Z,79.39
2022-08-18T03:24:34.907Z,79.42
2022-08-18T03:25:43.913Z,79.14
2022-08-18T03:26:47.511Z,78.86
2022-08-18T03:27:50.158Z,79.45
2022-08-18T03:28:54.529Z,79.24
2022-08-18T03:29:58.730Z,79.42
2022-08-18T03:31:00.608Z,79.32
2022-08-18T03:32:04.394Z,79.27
2022-08-18T03:33:06.177Z,79.37
2022-08-18T03:34:09.385Z,79.05
2022-08-18T03:35:11.104Z,78.95
2022-08-18T03:36:17.064Z,79.28
2022-08-18T03:37:18.682Z,78.90
2022-08-18T03:38:21.585Z,78.82
2022-08-18T03:39:24.974Z,79.14
2022-08-18T03:40:26.554Z,78.73
2022-08-18T03:41:43.944Z,78.64
2022-08-18T03:42:54.784Z,78.71
2022-08-18T03:43:58.333Z,78.65
2022-08-18T03:44:59.989Z,78.72
2022-08-18T03:46:06.509Z,78.79
2022-08-18T03:47:10.257Z,78.71
2022-08-18T03:48:12.843Z,78.71
2022-08-18T03:49:14.682Z,78.67
2022-08-18T03:50:18.696Z,78.99
2022-08-18T03:51:24.701Z,78.60
2022-08-18T03:52:27.544Z,78.49
2022-08-18T03:53:29.176Z,78.86
2022-08-18T03:54:33.341Z,79.05
2022-08-18T03:55:34.944Z,78.54
2022-08-18T03:56:39.444Z,78.76
2022-08-18T03:57:41.562Z,78.83
2022-08-18T03:58:47.280Z,78.72
2022-08-18T03:59:49.448Z,78.71
2022-08-18T04:00:52.043Z,78.18
2022-08-18T04:01:55.396Z,78.38
2022-08-18T04:02:59.402Z,78.41
2022-08-18T04:04:03.466Z,78.29
2022-08-18T04:05:07.915Z,78.31
2022-08-18T04:06:16.219Z,78.41
2022-08-18T04:07:32.625Z,78.25
2022-08-18T04:08:34.212Z,78.21
2022-08-18T04:09:38.698Z,78.23
2022-08-18T04:10:40.561Z,78.17
2022-08-18T04:11:44.829Z,78.12
2022-08-18T04:12:46.784Z,78.12
2022-08-18T04:13:51.056Z,78.06
2022-08-18T04:14:53.329Z,78.04
2022-08-18T04:15:55.941Z,78.05
2022-08-18T04:16:58.158Z,78.07
2022-08-18T04:18:04.184Z,78.08
2022-08-18T04:19:07.669Z,78.13
2022-08-18T04:20:12.814Z,77.96
2022-08-18T04:21:14.708Z,78.07
2022-08-18T04:22:18.510Z,78.25
2022-08-18T04:23:21.220Z,77.88
2022-08-18T04:24:24.036Z,78.21
2022-08-18T04:25:32.183Z,77.99
2022-08-18T04:26:38.079Z,78.18
2022-08-18T04:27:42.684Z,77.98
2022-08-18T04:28:45.375Z,77.78
2022-08-18T04:29:49.419Z,77.89
2022-08-18T04:30:51.589Z,78.00
2022-08-18T04:31:54.167Z,77.87
2022-08-18T04:32:55.785Z,77.95
2022-08-18T04:34:00.084Z,78.02
2022-08-18T04:35:02.894Z,77.74
2022-08-18T04:36:11.336Z,78.06
2022-08-18T04:37:13.844Z,77.84
2022-08-18T04:38:16.638Z,77.96
2022-08-18T04:39:18.445Z,78.01
2022-08-18T04:40:25.061Z,78.08
2022-08-18T04:41:27.875Z,78.11
2022-08-18T04:42:30.569Z,78.22
2022-08-18T04:43:33.603Z,77.98
2022-08-18T04:44:37.764Z,78.15
2022-08-18T04:45:41.185Z,78.08
2022-08-18T04:46:47.448Z,78.17
2022-08-18T04:47:50.754Z,78.09
2022-08-18T04:48:58.345Z,78.00
2022-08-18T04:50:00.911Z,78.26
2022-08-18T04:51:06.853Z,78.24
2022-08-18T04:52:39.636Z,77.92
2022-08-18T04:53:47.984Z,77.92
2022-08-18T04:54:50.125Z,78.34
2022-08-18T04:55:54.197Z,78.02
2022-08-18T04:56:56.792Z,78.07
2022-08-18T04:57:58.931Z,78.08
2022-08-18T04:59:04.526Z,78.14
2022-08-18T05:00:08.572Z,78.20
2022-08-18T05:01:17.447Z,78.01
2022-08-18T05:02:21.494Z,78.21
2022-08-18T05:03:26.761Z,77.75
2022-08-18T05:04:30.205Z,78.16
2022-08-18T05:05:32.807Z,78.09
2022-08-18T05:06:35.518Z,77.79
2022-08-18T05:07:44.738Z,77.73
2022-08-18T05:08:48.225Z,77.92
2022-08-18T05:09:51.899Z,78.00
2022-08-18T05:10:54.294Z,77.70
2022-08-18T05:11:56.951Z,77.84
2022-08-18T05:12:58.529Z,78.07
2022-08-18T05:14:02.069Z,77.93
2022-08-18T05:15:06.593Z,78.12
2022-08-18T05:16:11.122Z,77.99
2022-08-18T05:17:17.539Z,77.79
2022-08-18T05:18:22.704Z,77.50
2022-08-18T05:19:27.102Z,77.88
2022-08-18T05:20:29.681Z,77.47
2022-08-18T05:21:33.737Z,77.57
2022-08-18T05:22:39.764Z,77.84
2022-08-18T05:23:43.240Z,77.66
2022-08-18T05:24:45.116Z,77.56
2022-08-18T05:25:48.241Z,77.57
2022-08-18T05:26:56.220Z,77.70
2022-08-18T05:27:58.078Z,77.79
2022-08-18T05:29:18.003Z,77.76
2022-08-18T05:30:22.601Z,77.56
2022-08-18T05:31:28.482Z,77.38
2022-08-18T05:32:47.347Z,77.38
2022-08-18T05:33:55.513Z,77.34
2022-08-18T05:34:57.451Z,77.46
2022-08-18T05:36:04.819Z,76.68
2022-08-18T05:37:24.059Z,77.07
2022-08-18T05:38:42.289Z,77.10
2022-08-18T05:39:56.016Z,77.05
2022-08-18T05:41:14.341Z,77.14
2022-08-18T05:42:19.853Z,77.14
2022-08-18T05:43:22.494Z,77.04
2022-08-18T05:44:31.500Z,77.29
2022-08-18T05:45:35.319Z,77.35
2022-08-18T05:46:43.570Z,76.83
2022-08-18T05:47:47.992Z,77.19
2022-08-18T05:48:50.587Z,77.19
2022-08-18T05:49:54.627Z,77.33
2022-08-18T05:50:57.961Z,77.09
2022-08-18T05:52:04.335Z,77.31
2022-08-18T05:53:13.456Z,77.20
2022-08-18T05:54:37.769Z,77.29
2022-08-18T05:56:00.755Z,77.31
2022-08-18T05:57:08.398Z,77.31
2022-08-18T05:58:15.769Z,77.57
2022-08-18T05:59:26.083Z,77.23
2022-08-18T06:00:30.940Z,77.55
2022-08-18T06:01:38.715Z,77.68
2022-08-18T06:02:48.829Z,77.65
2022-08-18T06:03:55.464Z,77.62
2022-08-18T06:05:01.095Z,77.32
2022-08-18T06:06:08.944Z,77.46
2022-08-18T06:07:33.683Z,77.37
2022-08-18T06:08:40.590Z,77.67
2022-08-18T06:09:48.435Z,77.50
2022-08-18T06:10:51.584Z,77.52
2022-08-18T06:11:59.487Z,77.94
2022-08-18T06:13:03.678Z,77.69
2022-08-18T06:14:05.656Z,77.69
2022-08-18T06:15:14.428Z,77.80
2022-08-18T06:16:25.241Z,77.88
2022-08-18T06:17:43.985Z,78.07
2022-08-18T06:18:54.372Z,77.92
2022-08-18T06:20:04.308Z,77.73
2022-08-18T06:21:16.727Z,77.96
2022-08-18T06:22:31.268Z,77.90
2022-08-18T06:23:42.622Z,77.80
2022-08-18T06:24:51.817Z,77.80
2022-08-18T06:26:05.096Z,77.83
2022-08-18T06:27:14.910Z,78.07
2022-08-18T06:28:18.114Z,77.83
2022-08-18T06:29:34.425Z,77.92
2022-08-18T06:30:49.383Z,77.96
2022-08-18T06:32:01.293Z,77.90
2022-08-18T06:33:18.405Z,77.79
2022-08-18T06:34:37.284Z,77.83
2022-08-18T06:35:45.643Z,77.60
2022-08-18T06:36:55.375Z,77.57
2022-08-18T06:38:28.029Z,77.60
2022-08-18T06:39:36.497Z,77.90
2022-08-18T06:40:38.287Z,77.66
2022-08-18T06:41:45.359Z,77.44
2022-08-18T06:42:48.133Z,77.29
2022-08-18T06:44:01.199Z,77.31
2022-08-18T06:45:11.363Z,76.90
2022-08-18T06:46:17.624Z,77.08
2022-08-18T06:47:32.595Z,77.23
2022-08-18T06:48:40.487Z,76.87
2022-08-18T06:49:51.159Z,77.26
2022-08-18T06:50:55.978Z,77.04
2022-08-18T06:51:58.625Z,77.52
2022-08-18T06:53:04.973Z,77.37
2022-08-18T06:54:09.402Z,77.17
2022-08-18T06:55:17.432Z,77.28
2022-08-18T06:56:27.346Z,77.65
2022-08-18T06:57:32.781Z,77.53
2022-08-18T06:58:35.462Z,77.68
2022-08-18T06:59:38.305Z,77.74
2022-08-18T07:00:46.247Z,77.71
2022-08-18T07:01:54.797Z,78.23
2022-08-18T07:03:01.754Z,77.94
2022-08-18T07:04:03.626Z,78.00
2022-08-18T07:05:09.790Z,78.03
2022-08-18T07:06:31.420Z,78.23
2022-08-18T07:07:39.364Z,77.97
2022-08-18T07:08:54.271Z,78.08
2022-08-18T07:09:56.838Z,78.03
2022-08-18T07:11:12.600Z,78.14
2022-08-18T07:12:22.525Z,78.43
2022-08-18T07:13:27.199Z,78.61
2022-08-18T07:14:29.862Z,78.80
2022-08-18T07:15:32.163Z,78.78
2022-08-18T07:16:57.189Z,78.76
2022-08-18T07:18:06.139Z,79.15
2022-08-18T07:19:08.643Z,79.23
2022-08-18T07:20:21.787Z,79.29
2022-08-18T07:21:33.172Z,79.38
2022-08-18T07:23:07.880Z,79.42
2022-08-18T07:24:25.138Z,79.15
2022-08-18T07:25:32.386Z,79.06
2022-08-18T07:27:00.020Z,79.16
2022-08-18T07:28:02.794Z,79.63
2022-08-18T07:29:13.558Z,79.49
2022-08-18T07:30:29.422Z,79.27
2022-08-18T07:31:44.006Z,79.15
2022-08-18T07:32:49.733Z,78.90
2022-08-18T07:33:58.484Z,78.86
2022-08-18T07:35:04.464Z,78.54
2022-08-18T07:36:10.147Z,78.76
2022-08-18T07:37:18.543Z,78.57
2022-08-18T07:38:44.263Z,78.79
2022-08-18T07:39:52.604Z,78.57
2022-08-18T07:40:58.864Z,78.17
2022-08-18T07:42:07.351Z,78.23
2022-08-18T07:43:17.139Z,77.89
2022-08-18T07:44:26.024Z,77.69
2022-08-18T07:45:32.484Z,77.61
2022-08-18T07:46:45.165Z,77.78
2022-08-18T07:47:53.989Z,77.21
2022-08-18T07:48:58.732Z,77.38
2022-08-18T07:50:31.570Z,77.06
2022-08-18T07:51:43.424Z,76.74
2022-08-18T07:52:52.258Z,76.96
2022-08-18T07:53:59.582Z,77.21
2022-08-18T07:55:10.724Z,76.75
2022-08-18T07:56:19.922Z,76.38
2022-08-18T07:57:35.365Z,76.46
2022-08-18T07:58:49.992Z,75.95
2022-08-18T08:00:02.627Z,76.21
2022-08-18T08:01:17.646Z,75.78
2022-08-18T08:02:32.137Z,75.74
2022-08-18T08:03:42.681Z,75.94
2022-08-18T08:05:04.798Z,75.52
2022-08-18T08:06:13.241Z,75.66
2022-08-18T08:07:24.859Z,75.54
2022-08-18T08:08:33.189Z,75.66
2022-08-18T08:09:51.199Z,75.29
2022-08-18T08:11:08.535Z,75.44
2022-08-18T08:12:22.987Z,74.93
2022-08-18T08:13:54.543Z,74.91
2022-08-18T08:15:10.237Z,74.79
2022-08-18T08:16:20.052Z,74.64
2022-08-18T08:17:30.562Z,74.62
2022-08-18T08:18:42.139Z,74.42
2022-08-18T08:20:01.638Z,74.02
2022-08-18T08:21:10.801Z,74.08
2022-08-18T08:22:20.529Z,73.78
2022-08-18T08:23:30.147Z,73.69
2022-08-18T08:24:42.044Z,73.49
2022-08-18T08:25:56.801Z,73.19
2022-08-18T08:27:06.198Z,72.93
2022-08-18T08:28:15.616Z,72.82
2022-08-18T08:29:26.571Z,72.70
2022-08-18T08:30:32.416Z,73.00
2022-08-18T08:31:46.323Z,72.80
2022-08-18T08:33:02.875Z,72.73
2022-08-18T08:34:13.320Z,71.93
2022-08-18T08:35:48.402Z,71.76
2022-08-18T08:36:45.648Z,71.87
2022-08-18T08:37:54.032Z,71.66
2022-08-18T08:39:05.674Z,72.03
2022-08-18T08:40:14.122Z,71.57
2022-08-18T08:41:25.680Z,71.48
2022-08-18T08:42:40.914Z,71.63
2022-08-18T08:43:47.813Z,71.67
2022-08-18T08:44:59.790Z,71.96
2022-08-18T08:46:11.109Z,71.79
2022-08-18T08:47:21.828Z,71.80
2022-08-18T08:48:31.012Z,71.70
2022-08-18T08:49:40.157Z,71.72
2022-08-18T08:50:49.873Z,71.79
2022-08-18T08:51:57.922Z,71.66
2022-08-18T08:53:07.182Z,71.44
2022-08-18T08:54:14.122Z,71.70
2022-08-18T08:55:25.324Z,71.64
2022-08-18T08:56:31.061Z,71.41
2022-08-18T08:57:38.092Z,71.30
2022-08-18T08:58:44.498Z,71.12
2022-08-18T08:59:49.696Z,70.73
2022-08-18T09:00:52.587Z,70.52
2022-08-18T09:02:08.492Z,69.97
2022-08-18T09:03:30.593Z,70.07
2022-08-18T09:04:54.225Z,69.92
2022-08-18T09:06:22.686Z,69.34
2022-08-18T09:07:39.626Z,68.78
2022-08-18T09:09:14.361Z,68.91
2022-08-18T09:10:41.707Z,68.34
2022-08-18T09:12:21.562Z,67.98
2022-08-18T09:13:50.049Z,67.93
2022-08-18T09:15:34.806Z,67.96
2022-08-18T09:16:49.162Z,67.96
2022-08-18T09:18:12.358Z,67.45
2022-08-18T09:19:36.737Z,66.87
2022-08-18T09:20:59.065Z,67.11
2022-08-18T09:22:09.012Z,66.67
2022-08-18T09:23:14.703Z,66.34
2022-08-18T09:24:25.718Z,66.47
2022-08-18T09:25:43.501Z,66.38
2022-08-18T09:26:50.772Z,66.55
2022-08-18T09:28:11.861Z,66.30
2022-08-18T09:29:21.746Z,66.16
2022-08-18T09:30:45.195Z,65.96
2022-08-18T09:32:12.488Z,65.86
2022-08-18T09:33:20.371Z,65.86
2022-08-18T09:34:47.236Z,65.03
2022-08-18T09:36:26.039Z,64.86
2022-08-18T09:37:34.592Z,64.70
2022-08-18T09:39:01.739Z,64.84
2022-08-18T09:41:01.180Z,64.63
2022-08-18T09:41:59.454Z,64.01
2022-08-18T09:43:12.183Z,64.35
2022-08-18T09:44:37.050Z,63.50
2022-08-18T09:45:57.711Z,63.50
2022-08-18T09:47:01.331Z,63.03
2022-08-18T09:48:25.462Z,62.52
2022-08-18T09:49:47.792Z,62.32
2022-08-18T09:51:23.432Z,61.96
2022-08-18T09:52:58.864Z,62.67
2022-08-18T09:54:21.082Z,62.39
2022-08-18T09:57:24.210Z,61.58
2022-08-18T09:58:55.611Z,61.40
2022-08-18T10:00:28.313Z,61.22
2022-08-18T10:01:41.487Z,61.28
2022-08-18T10:03:25.920Z,61.04
2022-08-18T10:04:35.577Z,60.87
2022-08-18T10:05:38.399Z,60.66
2022-08-18T10:06:48.423Z,61.17
2022-08-18T10:07:55.935Z,60.91
2022-08-18T10:09:26.765Z,60.32
2022-08-18T10:11:02.256Z,60.38
2022-08-18T10:12:27.530Z,60.23
2022-08-18T10:13:48.355Z,60.23
2022-08-18T10:15:12.172Z,59.98
2022-08-18T10:16:22.224Z,60.41
2022-08-18T10:17:39.861Z,60.02
2022-08-18T10:19:01.293Z,60.17
2022-08-18T10:20:25.803Z,60.05
2022-08-18T10:22:55.343Z,59.49
2022-08-18T10:24:35.063Z,58.91
2022-08-18T10:25:47.495Z,59.05
2022-08-18T10:27:27.926Z,59.08
2022-08-18T10:28:57.283Z,58.77
2022-08-18T10:29:59.598Z,58.31
2022-08-18T10:31:09.846Z,58.03
2022-08-18T10:32:44.153Z,58.47
2022-08-18T10:34:00.797Z,58.45
2022-08-18T10:35:05.854Z,57.91
2022-08-18T10:36:11.033Z,57.61
2022-08-18T10:37:17.070Z,57.38
2022-08-18T10:38:32.526Z,57.36
2022-08-18T10:39:47.456Z,57.38
2022-08-18T10:41:00.051Z,57.73
2022-08-18T10:42:19.265Z,57.26
2022-08-18T10:43:55.005Z,56.95
2022-08-18T10:45:07.147Z,57.35
2022-08-18T10:46:25.268Z,57.78
2022-08-18T10:47:33.432Z,57.34
2022-08-18T10:48:35.745Z,57.41
2022-08-18T10:49:49.456Z,57.09
2022-08-18T10:50:58.582Z,57.16
2022-08-18T10:52:33.985Z,57.89
2022-08-18T10:53:45.413Z,57.92
2022-08-18T10:55:06.265Z,58.27
2022-08-18T10:56:34.096Z,58.36
2022-08-18T10:57:51.100Z,57.78
2022-08-18T10:59:16.434Z,58.01
2022-08-18T11:00:21.966Z,58.34
2022-08-18T11:02:02.436Z,58.49
2022-08-18T11:04:38.717Z,57.89
2022-08-18T11:05:42.044Z,58.47
2022-08-18T11:06:50.274Z,58.23
2022-08-18T11:07:58.520Z,58.43
2022-08-18T11:09:02.854Z,57.68
2022-08-18T11:10:57.828Z,57.75
2022-08-18T11:13:15.914Z,58.29
2022-08-18T11:14:50.206Z,57.98
2022-08-18T11:16:04.309Z,58.37
2022-08-18T11:17:22.829Z,57.99
2022-08-18T11:18:42.847Z,57.93
2022-08-18T11:19:52.729Z,57.66
2022-08-18T11:21:22.332Z,57.51
2022-08-18T11:22:32.423Z,57.27
2022-08-18T11:23:37.747Z,57.95
2022-08-18T11:24:46.393Z,57.86
2022-08-18T11:25:53.229Z,57.70
2022-08-18T11:26:59.653Z,57.88
2022-08-18T11:28:03.454Z,57.82
2022-08-18T11:29:28.937Z,57.80
2022-08-18T11:30:36.884Z,57.52
2022-08-18T11:31:40.453Z,56.98
2022-08-18T11:32:55.323Z,57.02
2022-08-18T11:33:57.441Z,57.06
2022-08-18T11:35:04.018Z,57.71
2022-08-18T11:36:06.809Z,57.35
2022-08-18T11:37:20.857Z,57.32
2022-08-18T11:38:23.453Z,57.12
2022-08-18T11:39:37.726Z,57.32
2022-08-18T11:42:15.810Z,57.19
2022-08-18T11:43:29.915Z,57.14
2022-08-18T11:44:41.181Z,57.18
2022-08-18T11:45:54.715Z,57.14
2022-08-18T11:47:10.447Z,57.02
2022-08-18T11:48:21.027Z,57.00
2022-08-18T11:49:33.964Z,57.23
2022-08-18T11:50:54.402Z,57.40
2022-08-18T11:53:26.605Z,57.23
2022-08-18T11:54:39.223Z,57.00
2022-08-18T11:56:30.809Z,56.52
2022-08-18T11:57:50.039Z,56.83
2022-08-18T11:58:56.575Z,56.06
2022-08-18T12:00:00.448Z,56.53
2022-08-18T12:01:09.324Z,56.37
2022-08-18T12:02:16.735Z,55.80
2022-08-18T12:03:28.483Z,56.05
2022-08-18T12:04:38.376Z,55.78
2022-08-18T12:05:54.025Z,56.07
2022-08-18T12:07:04.603Z,56.03
2022-08-18T12:08:33.539Z,55.41
2022-08-18T12:11:26.680Z,55.48
2022-08-18T12:12:32.543Z,55.41
2022-08-18T12:13:34.263Z,56.01
2022-08-18T12:14:58.917Z,55.19
2022-08-18T12:16:11.309Z,55.13
2022-08-18T12:17:15.327Z,55.67
2022-08-18T12:18:28.107Z,55.55
2022-08-18T12:19:35.894Z,55.63
2022-08-18T12:20:37.576Z,55.04
2022-08-18T12:21:41.697Z,55.46
2022-08-18T12:22:45.398Z,55.50
2022-08-18T12:23:52.197Z,55.13
2022-08-18T12:24:54.724Z,55.60
2022-08-18T12:25:57.410Z,55.16
2022-08-18T12:27:01.572Z,54.70
2022-08-18T12:28:15.299Z,54.81
2022-08-18T12:29:18.695Z,54.51
2022-08-18T12:30:23.643Z,54.39
2022-08-18T12:31:28.931Z,54.71
2022-08-18T12:32:50.626Z,54.30
2022-08-18T12:34:00.663Z,54.13
2022-08-18T12:35:09.255Z,54.36
2022-08-18T12:36:13.549Z,53.84
2022-08-18T12:37:56.650Z,53.91
2022-08-18T12:38:44.092Z,54.05
2022-08-18T12:39:55.325Z,53.56
2022-08-18T12:40:58.026Z,53.35
2022-08-18T12:41:59.641Z,53.75
2022-08-18T12:43:02.363Z,53.86
2022-08-18T12:44:09.885Z,53.21
2022-08-18T12:45:15.390Z,53.21
2022-08-18T12:46:18.512Z,53.21
2022-08-18T12:47:22.286Z,53.22
2022-08-18T12:48:28.087Z,53.15
2022-08-18T12:49:29.713Z,53.24
2022-08-18T12:50:36.301Z,53.00
2022-08-18T12:51:40.434Z,53.03
2022-08-18T12:52:44.099Z,53.00
2022-08-18T12:53:58.203Z,53.13
2022-08-18T12:55:03.222Z,53.60
2022-08-18T12:56:08.795Z,53.62
2022-08-18T12:57:33.092Z,53.83
2022-08-18T12:58:36.550Z,53.53
2022-08-18T12:59:40.013Z,53.54
2022-08-18T13:00:44.503Z,53.89
2022-08-18T13:01:47.217Z,53.83
2022-08-18T13:02:49.870Z,53.75
2022-08-18T13:04:12.781Z,54.09
2022-08-18T13:05:16.585Z,54.15
2022-08-18T13:06:18.278Z,53.91
2022-08-18T13:07:21.175Z,54.12
2022-08-18T13:08:30.650Z,53.67
2022-08-18T13:09:52.555Z,54.01
2022-08-18T13:10:56.409Z,53.57
2022-08-18T13:12:00.285Z,53.35
2022-08-18T13:13:03.177Z,53.23
2022-08-18T13:14:08.851Z,53.02
2022-08-18T13:15:12.547Z,52.99
2022-08-18T13:16:30.306Z,52.88
2022-08-18T13:17:34.473Z,52.78
2022-08-18T13:18:36.880Z,52.63
2022-08-18T13:19:40.900Z,52.89
2022-08-18T13:20:45.075Z,52.80
2022-08-18T13:21:47.572Z,52.26
2022-08-18T13:22:52.681Z,52.13
2022-08-18T13:23:55.067Z,52.61
2022-08-18T13:24:57.761Z,52.01
2022-08-18T13:26:03.310Z,51.90
2022-08-18T13:27:18.460Z,52.00
2022-08-18T13:28:26.032Z,52.01
2022-08-18T13:29:32.268Z,51.72
2022-08-18T13:30:35.752Z,51.41
2022-08-18T13:31:38.683Z,51.95
2022-08-18T13:32:59.374Z,52.14
2022-08-18T13:34:04.070Z,51.84
2022-08-18T13:35:13.571Z,52.11
2022-08-18T13:36:16.611Z,52.03
2022-08-18T13:37:20.524Z,52.08
2022-08-18T13:38:27.661Z,51.44
2022-08-18T13:39:33.626Z,52.01
2022-08-18T13:40:38.250Z,51.71
2022-08-18T13:41:51.743Z,51.45
2022-08-18T13:42:55.361Z,50.84
2022-08-18T13:43:58.796Z,50.93
2022-08-18T13:45:24.698Z,51.08
2022-08-18T13:46:30.951Z,50.73
2022-08-18T13:47:38.382Z,51.31
2022-08-18T13:48:41.998Z,51.01
2022-08-18T13:49:43.705Z,50.57
2022-08-18T13:51:03.949Z,50.24
2022-08-18T13:52:12.132Z,50.59
2022-08-18T13:53:31.363Z,50.04
2022-08-18T13:54:35.472Z,50.16
2022-08-18T13:55:38.436Z,49.74
2022-08-18T13:56:40.064Z,50.49
2022-08-18T13:57:48.283Z,49.85
2022-08-18T13:58:53.966Z,50.17
2022-08-18T13:59:56.582Z,49.67
2022-08-18T14:01:22.821Z,49.55
2022-08-18T14:02:26.835Z,49.67
2022-08-18T14:03:42.758Z,49.55
2022-08-18T14:04:54.818Z,49.94
2022-08-18T14:06:01.493Z,49.66
2022-08-18T14:07:10.981Z,49.58
2022-08-18T14:08:19.243Z,49.61
2022-08-18T14:09:36.617Z,49.81
2022-08-18T14:10:41.027Z,50.23
2022-08-18T14:11:44.314Z,49.61
2022-08-18T14:12:56.646Z,49.39
2022-08-18T14:13:58.861Z,49.53
2022-08-18T14:15:01.861Z,50.02
2022-08-18T14:16:04.573Z,49.46
2022-08-18T14:17:07.216Z,49.69
2022-08-18T14:18:11.037Z,49.76
2022-08-18T14:19:36.752Z,49.45
2022-08-18T14:21:00.052Z,49.50
2022-08-18T14:22:19.905Z,49.95
2022-08-18T14:23:40.248Z,49.98
2022-08-18T14:25:12.200Z,49.80
2022-08-18T14:26:32.288Z,49.69
2022-08-18T14:27:37.580Z,50.01
2022-08-18T14:28:41.221Z,49.42
2022-08-18T14:29:47.788Z,49.66
2022-08-18T14:30:54.591Z,49.59
2022-08-18T14:31:57.484Z,49.55
2022-08-18T14:33:06.925Z,49.15
2022-08-18T14:34:14.263Z,49.18
2022-08-18T14:36:04.304Z,49.06
2022-08-18T14:36:46.709Z,48.96
2022-08-18T14:37:52.685Z,48.74
2022-08-18T14:39:00.118Z,49.22
2022-08-18T14:40:04.290Z,48.79
2022-08-18T14:41:11.928Z,48.79
2022-08-18T14:42:19.102Z,48.80
2022-08-18T14:43:24.970Z,48.87
2022-08-18T14:44:32.616Z,48.99
2022-08-18T14:45:36.180Z,48.83
2022-08-18T14:46:37.975Z,48.69
2022-08-18T14:47:43.795Z,48.55
2022-08-18T14:48:47.651Z,48.80
2022-08-18T14:49:50.417Z,48.71
2022-08-18T14:50:55.294Z,48.62
2022-08-18T14:51:59.256Z,48.89
2022-08-18T14:53:05.228Z,48.25
2022-08-18T14:54:07.860Z,48.91
2022-08-18T14:55:11.342Z,48.55
2022-08-18T14:56:14.356Z,48.90
2022-08-18T14:57:18.560Z,48.88
2022-08-18T14:58:22.227Z,48.71
2022-08-18T14:59:28.377Z,48.52
2022-08-18T15:00:31.110Z,48.56
2022-08-18T15:01:34.983Z,48.54